Tynda, Russia
Current Conditions -  °F | °C
As of 10:00 PM on Monday 20 Oct 2014 (Local Time) from UHBB Reporting Station
Clear Clear  
Wind Chill: 18°   Ceiling: Unl
Heat Index: 18°   Visibility: 6mi
Dew Point:   Wind: 2mph
Humidity: 45%   Direction: 220°SW
Pressure: 30.18"   Gusts: NA
Location:  55.17°N, 124.72°E
Report Text: UHBB 201300Z 22001MPS CAVOK M08/M18 Q1022 NOSIG RMK QFE749/099936090060
Loading
Personal Weather Stations






























Interactive Weather Map
Tropical Storm Tracking
New forecast layout! Learn more

10-Day Weather Forecast

Advertisements
Track Severe Weather on mobile